createdAt,value
2023-01-29T00:01:36.539Z,100015.78
2023-01-29T00:04:04.190Z,100017.06
2023-01-29T00:06:31.694Z,100013.00
2023-01-29T00:08:58.924Z,100009.06
2023-01-29T00:11:26.285Z,100015.78
2023-01-29T00:13:53.587Z,100017.53
2023-01-29T00:16:21.138Z,100021.84
2023-01-29T00:18:48.530Z,100012.72
2023-01-29T00:21:19.024Z,100003.59
2023-01-29T00:23:46.578Z,100001.06
2023-01-29T00:26:14.128Z,99996.91
2023-01-29T00:28:44.677Z,100002.84
2023-01-29T00:31:18.506Z,100005.13
2023-01-29T00:33:46.024Z,99997.31
2023-01-29T00:36:14.179Z,100000.34
2023-01-29T00:38:41.493Z,100000.22
2023-01-29T00:41:28.404Z,99993.31
2023-01-29T00:44:14.541Z,99998.09
2023-01-29T00:46:42.023Z,99993.81
2023-01-29T00:49:10.038Z,99989.50
2023-01-29T00:51:38.342Z,99979.63
2023-01-29T00:54:06.958Z,99980.53
2023-01-29T00:56:35.793Z,99987.22
2023-01-29T00:59:04.203Z,99986.47
2023-01-29T01:01:50.256Z,99987.97
2023-01-29T01:04:17.470Z,99992.03
2023-01-29T01:06:45.147Z,99988.63
2023-01-29T01:09:31.181Z,99986.88
2023-01-29T01:12:01.783Z,99987.66
2023-01-29T01:14:28.957Z,99982.47
2023-01-29T01:16:56.179Z,99987.03
2023-01-29T01:19:23.805Z,99986.56
2023-01-29T01:21:51.093Z,99988.84
2023-01-29T01:24:18.418Z,99993.44
2023-01-29T01:26:45.824Z,99990.50
2023-01-29T01:29:13.103Z,99992.94
2023-01-29T01:31:40.493Z,99988.63
2023-01-29T01:34:07.755Z,99991.06
2023-01-29T01:36:35.020Z,99985.84
2023-01-29T01:39:02.222Z,99980.78
2023-01-29T01:41:29.646Z,99986.63
2023-01-29T01:43:58.037Z,99974.75
2023-01-29T01:46:28.354Z,99982.22
2023-01-29T01:49:02.331Z,99966.41
2023-01-29T01:51:32.251Z,99963.88
2023-01-29T01:54:10.641Z,99969.69
2023-01-29T01:56:43.953Z,99972.22
2023-01-29T01:59:13.497Z,99962.88
2023-01-29T02:01:43.050Z,99962.66
2023-01-29T02:04:34.226Z,99951.50
2023-01-29T02:07:22.070Z,99955.78
2023-01-29T02:09:54.923Z,99953.28
2023-01-29T02:12:22.782Z,99943.16
2023-01-29T02:14:51.414Z,99939.03
2023-01-29T02:17:19.675Z,99940.91
2023-01-29T02:19:59.176Z,99942.00
2023-01-29T02:22:38.629Z,99947.06
2023-01-29T02:25:24.463Z,99938.72
2023-01-29T02:27:54.446Z,99925.97
2023-01-29T02:30:23.068Z,99929.25
2023-01-29T02:32:58.840Z,99928.25
2023-01-29T02:35:37.498Z,99917.16
2023-01-29T02:38:05.005Z,99911.06
2023-01-29T02:40:53.590Z,99916.91
2023-01-29T02:43:25.196Z,99910.84
2023-01-29T02:46:06.326Z,99910.06
2023-01-29T02:49:00.462Z,99905.03
2023-01-29T02:51:33.933Z,99899.09
2023-01-29T02:54:14.056Z,99896.44
2023-01-29T02:57:01.368Z,99885.47
2023-01-29T02:59:34.388Z,99885.19
2023-01-29T03:02:10.918Z,99886.84
2023-01-29T03:04:49.489Z,99882.81
2023-01-29T03:07:41.202Z,99874.47
2023-01-29T03:10:14.337Z,99874.59
2023-01-29T03:12:44.123Z,99877.34
2023-01-29T03:15:25.297Z,99869.88
2023-01-29T03:18:21.343Z,99861.56
2023-01-29T03:20:52.073Z,99861.38
2023-01-29T03:23:38.130Z,99860.31
2023-01-29T03:26:29.010Z,99847.44
2023-01-29T03:29:15.453Z,99849.81
2023-01-29T03:32:09.207Z,99840.97
2023-01-29T03:34:44.450Z,99828.34
2023-01-29T03:37:16.828Z,99833.50
2023-01-29T03:39:44.504Z,99831.22
2023-01-29T03:42:31.615Z,99828.16
2023-01-29T03:45:05.409Z,99822.59
2023-01-29T03:47:46.043Z,99805.72
2023-01-29T03:50:32.437Z,99811.41
2023-01-29T03:53:15.427Z,99805.13
2023-01-29T03:55:55.656Z,99795.66
2023-01-29T03:58:26.245Z,99790.91
2023-01-29T04:00:56.408Z,99795.94
2023-01-29T04:03:30.490Z,99797.31
2023-01-29T04:06:09.875Z,99793.25
2023-01-29T04:08:48.480Z,99781.56
2023-01-29T04:11:21.158Z,99785.00
2023-01-29T04:13:49.235Z,99781.97
2023-01-29T04:16:31.642Z,99781.75
2023-01-29T04:19:15.548Z,99767.91
2023-01-29T04:21:45.448Z,99768.94
2023-01-29T04:24:14.410Z,99771.88
2023-01-29T04:26:45.122Z,99776.91
2023-01-29T04:29:12.701Z,99768.94
2023-01-29T04:31:53.008Z,99769.81
2023-01-29T04:34:26.355Z,99769.69
2023-01-29T04:37:04.620Z,99768.16
2023-01-29T04:39:40.885Z,99760.31
2023-01-29T04:42:27.095Z,99757.59
2023-01-29T04:44:57.110Z,99758.09
2023-01-29T04:47:39.165Z,99759.34
2023-01-29T04:50:14.901Z,99760.00
2023-01-29T04:52:52.849Z,99760.94
2023-01-29T04:55:26.721Z,99758.81
2023-01-29T04:58:14.201Z,99764.47
2023-01-29T05:00:46.852Z,99754.66
2023-01-29T05:03:16.650Z,99752.19
2023-01-29T05:05:48.219Z,99743.00
2023-01-29T05:08:17.855Z,99738.91
2023-01-29T05:10:49.480Z,99749.69
2023-01-29T05:13:18.343Z,99747.47
2023-01-29T05:15:50.067Z,99745.31
2023-01-29T05:18:17.692Z,99753.41
2023-01-29T05:20:45.620Z,99750.53
2023-01-29T05:23:20.915Z,99742.34
2023-01-29T05:25:49.115Z,99749.56
2023-01-29T05:28:19.189Z,99747.16
2023-01-29T05:30:47.835Z,99747.75
2023-01-29T05:33:16.811Z,99756.94
2023-01-29T05:35:44.252Z,99751.94
2023-01-29T05:38:11.964Z,99749.00
2023-01-29T05:40:39.271Z,99753.22
2023-01-29T05:43:06.805Z,99742.34
2023-01-29T05:45:34.039Z,99746.38
2023-01-29T05:48:01.345Z,99752.34
2023-01-29T05:50:28.660Z,99754.53
2023-01-29T05:52:56.638Z,99755.53
2023-01-29T05:55:27.083Z,99746.91
2023-01-29T05:57:54.503Z,99737.84
2023-01-29T06:00:21.981Z,99754.41
2023-01-29T06:02:49.585Z,99754.88
2023-01-29T06:05:17.053Z,99763.13
2023-01-29T06:07:45.589Z,99760.22
2023-01-29T06:10:17.755Z,99756.81
2023-01-29T06:12:45.212Z,99754.66
2023-01-29T06:15:13.529Z,99756.81
2023-01-29T06:17:42.800Z,99767.28
2023-01-29T06:20:10.388Z,99751.34
2023-01-29T06:22:38.189Z,99745.91
2023-01-29T06:25:05.704Z,99747.13
2023-01-29T06:27:32.983Z,99736.28
2023-01-29T06:30:00.311Z,99736.13
2023-01-29T06:32:28.131Z,99737.09
2023-01-29T06:34:55.408Z,99739.59
2023-01-29T06:37:22.703Z,99729.09
2023-01-29T06:39:50.021Z,99724.72
2023-01-29T06:42:17.253Z,99725.09
2023-01-29T06:44:45.446Z,99733.88
2023-01-29T06:47:12.644Z,99730.84
2023-01-29T06:49:40.399Z,99733.47
2023-01-29T06:52:07.701Z,99729.41
2023-01-29T06:54:34.901Z,99727.22
2023-01-29T06:57:02.116Z,99721.63
2023-01-29T06:59:31.841Z,99718.69
2023-01-29T07:01:59.590Z,99710.41
2023-01-29T07:04:27.134Z,99710.00
2023-01-29T07:06:55.297Z,99706.34
2023-01-29T07:09:23.143Z,99693.69
2023-01-29T07:11:51.231Z,99685.22
2023-01-29T07:14:18.807Z,99693.50
2023-01-29T07:16:46.358Z,99700.22
2023-01-29T07:19:14.100Z,99703.88
2023-01-29T07:21:41.385Z,99702.28
2023-01-29T07:24:09.227Z,99705.81
2023-01-29T07:26:36.537Z,99707.59
2023-01-29T07:29:05.088Z,99696.91
2023-01-29T07:31:32.381Z,99687.34
2023-01-29T07:34:00.483Z,99693.41
2023-01-29T07:36:28.643Z,99696.59
2023-01-29T07:38:56.054Z,99698.03
2023-01-29T07:41:23.311Z,99697.59
2023-01-29T07:43:51.577Z,99690.44
2023-01-29T07:46:20.341Z,99686.28
2023-01-29T07:48:47.866Z,99679.44
2023-01-29T07:51:17.206Z,99672.84
2023-01-29T07:53:45.227Z,99671.19
2023-01-29T07:56:12.760Z,99676.81
2023-01-29T07:58:39.989Z,99658.81
2023-01-29T08:01:08.039Z,99653.53
2023-01-29T08:03:36.017Z,99661.91
2023-01-29T08:06:04.138Z,99654.19
2023-01-29T08:08:33.596Z,99649.91
2023-01-29T08:11:01.865Z,99662.66
2023-01-29T08:13:29.133Z,99658.38
2023-01-29T08:15:59.404Z,99665.50
2023-01-29T08:18:27.002Z,99653.53
2023-01-29T08:20:58.678Z,99647.13
2023-01-29T08:23:25.891Z,99639.22
2023-01-29T08:25:53.141Z,99650.00
2023-01-29T08:28:20.505Z,99645.06
2023-01-29T08:30:47.855Z,99651.09
2023-01-29T08:33:16.218Z,99642.53
2023-01-29T08:35:45.605Z,99642.75
2023-01-29T08:38:12.823Z,99642.63
2023-01-29T08:40:43.716Z,99640.97
2023-01-29T08:43:12.269Z,99642.41
2023-01-29T08:45:41.429Z,99642.84
2023-01-29T08:48:11.369Z,99643.72
2023-01-29T08:50:38.624Z,99640.56
2023-01-29T08:53:08.061Z,99640.34
2023-01-29T08:55:36.425Z,99637.34
2023-01-29T08:58:04.566Z,99638.78
2023-01-29T09:00:32.907Z,99631.72
2023-01-29T09:03:01.094Z,99628.09
2023-01-29T09:05:28.803Z,99621.06
2023-01-29T09:07:59.544Z,99625.38
2023-01-29T09:10:27.225Z,99626.66
2023-01-29T09:12:57.245Z,99626.91
2023-01-29T09:15:24.615Z,99617.91
2023-01-29T09:17:52.179Z,99625.16
2023-01-29T09:20:20.054Z,99624.38
2023-01-29T09:22:48.091Z,99628.13
2023-01-29T09:25:15.641Z,99625.81
2023-01-29T09:27:43.183Z,99622.28
2023-01-29T09:30:10.773Z,99621.19
2023-01-29T09:32:54.872Z,99613.94
2023-01-29T09:35:23.151Z,99611.06
2023-01-29T09:37:50.906Z,99599.84
2023-01-29T09:40:23.850Z,99583.47
2023-01-29T09:42:55.929Z,99597.00
2023-01-29T09:45:25.194Z,99586.78
2023-01-29T09:47:53.809Z,99592.16
2023-01-29T09:50:28.655Z,99588.44
2023-01-29T09:53:11.242Z,99591.06
2023-01-29T09:55:42.733Z,99582.16
2023-01-29T09:58:31.375Z,99584.44
2023-01-29T10:00:58.793Z,99570.28
2023-01-29T10:03:35.312Z,99567.66
2023-01-29T10:06:05.843Z,99568.28
2023-01-29T10:08:48.691Z,99545.72
2023-01-29T10:11:34.902Z,99551.69
2023-01-29T10:14:38.039Z,99552.13
2023-01-29T10:17:14.148Z,99545.31
2023-01-29T10:19:41.383Z,99541.09
2023-01-29T10:22:30.495Z,99537.84
2023-01-29T10:25:00.837Z,99531.13
2023-01-29T10:27:32.274Z,99515.94
2023-01-29T10:30:01.066Z,99512.97
2023-01-29T10:32:29.403Z,99500.63
2023-01-29T10:35:00.009Z,99493.13
2023-01-29T10:37:35.472Z,99489.75
2023-01-29T10:40:11.796Z,99491.81
2023-01-29T10:42:44.948Z,99479.41
2023-01-29T10:45:27.110Z,99476.63
2023-01-29T10:48:13.133Z,99469.22
2023-01-29T10:50:41.267Z,99466.38
2023-01-29T10:53:20.992Z,99463.38
2023-01-29T10:55:56.998Z,99470.19
2023-01-29T10:58:39.166Z,99463.09
2023-01-29T11:01:07.402Z,99452.22
2023-01-29T11:03:37.710Z,99462.56
2023-01-29T11:06:07.282Z,99454.84
2023-01-29T11:08:37.622Z,99450.97
2023-01-29T11:11:16.379Z,99452.28
2023-01-29T11:13:50.926Z,99443.59
2023-01-29T11:16:18.450Z,99441.28
2023-01-29T11:18:59.640Z,99443.69
2023-01-29T11:21:28.404Z,99434.00
2023-01-29T11:24:06.157Z,99435.19
2023-01-29T11:26:35.989Z,99437.28
2023-01-29T11:29:03.297Z,99441.72
2023-01-29T11:31:37.196Z,99439.56
2023-01-29T11:34:06.325Z,99439.78
2023-01-29T11:36:38.507Z,99437.00
2023-01-29T11:39:12.457Z,99427.84
2023-01-29T11:41:59.425Z,99425.75
2023-01-29T11:44:34.861Z,99424.59
2023-01-29T11:47:28.998Z,99421.09
2023-01-29T11:50:03.265Z,99428.69
2023-01-29T11:52:36.582Z,99422.03
2023-01-29T11:55:06.166Z,99418.63
2023-01-29T11:57:38.869Z,99422.25
2023-01-29T12:00:25.041Z,99413.91
2023-01-29T12:03:11.199Z,99411.91
2023-01-29T12:05:39.580Z,99412.59
2023-01-29T12:08:16.498Z,99413.00
2023-01-29T12:10:44.241Z,99408.53
2023-01-29T12:13:12.290Z,99399.91
2023-01-29T12:15:40.567Z,99413.50
2023-01-29T12:18:13.967Z,99409.47
2023-01-29T12:20:44.512Z,99407.50
2023-01-29T12:23:23.120Z,99401.59
2023-01-29T12:25:53.448Z,99404.41
2023-01-29T12:28:39.591Z,99406.91
2023-01-29T12:31:13.091Z,99405.59
2023-01-29T12:33:51.525Z,99403.59
2023-01-29T12:36:24.004Z,99402.50
2023-01-29T12:38:54.616Z,99408.59
2023-01-29T12:41:24.814Z,99403.47
2023-01-29T12:44:00.723Z,99400.38
2023-01-29T12:46:29.867Z,99409.22
2023-01-29T12:48:59.227Z,99399.63
2023-01-29T12:51:30.130Z,99412.44
2023-01-29T12:54:05.543Z,99405.03
2023-01-29T12:56:40.301Z,99398.41
2023-01-29T12:59:16.289Z,99408.22
2023-01-29T13:01:48.364Z,99404.50
2023-01-29T13:04:21.181Z,99403.72
2023-01-29T13:06:54.310Z,99388.88
2023-01-29T13:09:24.753Z,99392.56
2023-01-29T13:11:56.095Z,99388.53
2023-01-29T13:14:26.239Z,99398.06
2023-01-29T13:16:55.895Z,99390.88
2023-01-29T13:19:27.639Z,99389.03
2023-01-29T13:21:56.830Z,99379.91
2023-01-29T13:24:25.171Z,99384.63
2023-01-29T13:26:52.562Z,99379.13
2023-01-29T13:29:24.486Z,99380.09
2023-01-29T13:31:56.032Z,99382.94
2023-01-29T13:34:24.971Z,99383.34
2023-01-29T13:36:54.686Z,99375.28
2023-01-29T13:39:33.164Z,99376.41
2023-01-29T13:42:01.397Z,99371.72
2023-01-29T13:44:37.973Z,99373.28
2023-01-29T13:47:09.807Z,99375.91
2023-01-29T13:49:37.212Z,99371.38
2023-01-29T13:52:24.181Z,99361.06
2023-01-29T13:55:31.147Z,99365.63
2023-01-29T13:57:59.672Z,99358.63
2023-01-29T14:00:33.148Z,99361.06
2023-01-29T14:03:02.688Z,99360.22
2023-01-29T14:05:29.886Z,99359.50
2023-01-29T14:07:57.304Z,99359.75
2023-01-29T14:10:25.094Z,99355.00
2023-01-29T14:12:54.147Z,99356.34
2023-01-29T14:15:27.738Z,99350.31
2023-01-29T14:18:00.199Z,99344.53
2023-01-29T14:20:46.129Z,99346.09
2023-01-29T14:23:36.969Z,99337.97
2023-01-29T14:26:06.062Z,99336.38
2023-01-29T14:28:35.178Z,99343.66
2023-01-29T14:31:03.120Z,99336.31
2023-01-29T14:33:38.188Z,99334.25
2023-01-29T14:36:26.518Z,99333.88
2023-01-29T14:38:54.676Z,99337.81
2023-01-29T14:41:32.999Z,99340.22
2023-01-29T14:44:18.927Z,99345.91
2023-01-29T14:46:46.183Z,99342.78
2023-01-29T14:49:35.872Z,99342.78
2023-01-29T14:52:04.079Z,99334.66
2023-01-29T14:54:34.081Z,99340.34
2023-01-29T14:57:05.206Z,99337.28
2023-01-29T14:59:38.133Z,99332.13
2023-01-29T15:02:22.481Z,99329.72
2023-01-29T15:04:52.463Z,99331.81
2023-01-29T15:07:22.451Z,99330.00
2023-01-29T15:10:20.941Z,99327.09
2023-01-29T15:13:09.324Z,99324.28
2023-01-29T15:15:44.227Z,99324.56
2023-01-29T15:18:19.436Z,99325.00
2023-01-29T15:20:46.833Z,99325.53
2023-01-29T15:23:23.275Z,99321.59
2023-01-29T15:25:52.548Z,99322.13
2023-01-29T15:28:20.182Z,99327.34
2023-01-29T15:30:52.198Z,99330.38
2023-01-29T15:33:19.694Z,99333.25
2023-01-29T15:35:49.857Z,99333.72
2023-01-29T15:38:25.616Z,99333.44
2023-01-29T15:40:59.095Z,99343.19
2023-01-29T15:43:30.505Z,99332.66
2023-01-29T15:46:00.243Z,99335.25
2023-01-29T15:48:39.080Z,99325.84
2023-01-29T15:51:07.581Z,99321.41
2023-01-29T15:53:37.537Z,99323.31
2023-01-29T15:56:09.094Z,99326.38
2023-01-29T15:58:42.689Z,99326.47
2023-01-29T16:01:11.377Z,99312.84
2023-01-29T16:03:39.093Z,99321.19
2023-01-29T16:06:07.397Z,99317.91
2023-01-29T16:08:35.047Z,99317.47
2023-01-29T16:11:03.504Z,99304.22
2023-01-29T16:13:34.398Z,99297.53
2023-01-29T16:16:04.377Z,99297.97
2023-01-29T16:18:37.449Z,99303.22
2023-01-29T16:21:20.120Z,99295.78
2023-01-29T16:24:09.830Z,99298.63
2023-01-29T16:26:38.198Z,99307.19
2023-01-29T16:29:10.760Z,99308.06
2023-01-29T16:31:42.189Z,99311.47
2023-01-29T16:34:17.400Z,99303.91
2023-01-29T16:36:46.202Z,99313.59
2023-01-29T16:39:33.842Z,99299.09
2023-01-29T16:42:10.886Z,99303.25
2023-01-29T16:44:39.417Z,99295.34
2023-01-29T16:47:11.049Z,99294.66
2023-01-29T16:49:38.229Z,99296.91
2023-01-29T16:52:34.858Z,99300.50
2023-01-29T16:55:16.210Z,99297.53
2023-01-29T16:57:48.148Z,99286.88
2023-01-29T17:00:20.998Z,99286.09
2023-01-29T17:02:50.867Z,99287.59
2023-01-29T17:05:21.321Z,99276.19
2023-01-29T17:07:49.047Z,99283.44
2023-01-29T17:10:18.254Z,99277.94
2023-01-29T17:12:52.957Z,99267.41
2023-01-29T17:15:43.223Z,99270.94
2023-01-29T17:18:21.655Z,99261.47
2023-01-29T17:20:49.496Z,99259.97
2023-01-29T17:23:17.301Z,99260.34
2023-01-29T17:25:45.350Z,99256.44
2023-01-29T17:28:13.808Z,99256.97
2023-01-29T17:30:41.291Z,99261.97
2023-01-29T17:33:21.804Z,99256.03
2023-01-29T17:35:50.103Z,99268.53
2023-01-29T17:38:26.071Z,99270.41
2023-01-29T17:41:00.089Z,99264.59
2023-01-29T17:43:27.417Z,99261.63
2023-01-29T17:45:54.843Z,99265.03
2023-01-29T17:48:26.681Z,99262.59
2023-01-29T17:50:55.184Z,99264.53
2023-01-29T17:53:24.849Z,99261.56
2023-01-29T17:55:53.810Z,99255.19
2023-01-29T17:58:22.387Z,99257.47
2023-01-29T18:00:50.069Z,99254.84
2023-01-29T18:03:17.309Z,99257.47
2023-01-29T18:05:45.816Z,99250.03
2023-01-29T18:08:21.069Z,99251.28
2023-01-29T18:10:48.667Z,99242.97
2023-01-29T18:13:15.961Z,99246.38
2023-01-29T18:15:43.169Z,99236.25
2023-01-29T18:18:13.772Z,99249.97
2023-01-29T18:20:41.140Z,99241.69
2023-01-29T18:23:08.740Z,99243.34
2023-01-29T18:25:36.030Z,99241.59
2023-01-29T18:28:04.406Z,99240.72
2023-01-29T18:30:32.034Z,99240.72
2023-01-29T18:32:59.586Z,99239.41
2023-01-29T18:35:27.513Z,99236.28
2023-01-29T18:37:55.135Z,99235.72
2023-01-29T18:40:22.453Z,99237.56
2023-01-29T18:42:49.737Z,99227.28
2023-01-29T18:45:17.308Z,99232.50
2023-01-29T18:47:44.771Z,99237.09
2023-01-29T18:50:12.040Z,99239.53
2023-01-29T18:52:41.527Z,99226.91
2023-01-29T18:55:09.865Z,99233.72
2023-01-29T18:58:27.946Z,99238.84
2023-01-29T19:00:26.632Z,99240.69
2023-01-29T19:02:53.897Z,99230.81
2023-01-29T19:05:23.793Z,99234.63
2023-01-29T19:07:52.405Z,99230.53
2023-01-29T19:10:19.716Z,99227.22
2023-01-29T19:12:47.834Z,99228.31
2023-01-29T19:15:16.429Z,99221.28
2023-01-29T19:17:43.916Z,99211.28
2023-01-29T19:20:11.496Z,99213.03
2023-01-29T19:22:39.690Z,99208.09
2023-01-29T19:25:07.394Z,99205.84
2023-01-29T19:27:34.636Z,99210.81
2023-01-29T19:30:02.236Z,99203.22
2023-01-29T19:32:30.252Z,99198.94
2023-01-29T19:34:57.994Z,99204.19
2023-01-29T19:37:25.731Z,99201.75
2023-01-29T19:39:53.911Z,99195.16
2023-01-29T19:42:21.393Z,99192.72
2023-01-29T19:44:49.171Z,99202.16
2023-01-29T19:47:16.828Z,99198.09
2023-01-29T19:49:44.857Z,99189.50
2023-01-29T19:52:49.844Z,99188.72
2023-01-29T19:55:20.094Z,99188.44
2023-01-29T19:57:47.669Z,99189.78
2023-01-29T20:00:15.642Z,99177.84
2023-01-29T20:02:42.907Z,99191.63
2023-01-29T20:05:12.142Z,99180.44
2023-01-29T20:07:40.135Z,99183.75
2023-01-29T20:10:10.113Z,99186.19
2023-01-29T20:12:37.777Z,99184.44
2023-01-29T20:15:05.117Z,99173.59
2023-01-29T20:17:32.648Z,99167.78
2023-01-29T20:19:59.893Z,99163.84
2023-01-29T20:22:27.200Z,99166.47
2023-01-29T20:24:57.368Z,99158.56
2023-01-29T20:27:25.113Z,99160.63
2023-01-29T20:29:52.812Z,99151.72
2023-01-29T20:32:20.091Z,99136.56
2023-01-29T20:34:52.175Z,99140.13
2023-01-29T20:37:19.827Z,99138.31
2023-01-29T20:39:47.138Z,99138.72
2023-01-29T20:42:14.683Z,99132.47
2023-01-29T20:44:42.192Z,99134.78
2023-01-29T20:47:09.506Z,99128.75
2023-01-29T20:49:36.753Z,99118.91
2023-01-29T20:52:04.061Z,99122.31
2023-01-29T20:54:36.003Z,99134.03
2023-01-29T20:57:03.837Z,99127.88
2023-01-29T20:59:31.583Z,99122.09
2023-01-29T21:01:58.887Z,99128.91
2023-01-29T21:04:27.373Z,99130.00
2023-01-29T21:06:54.763Z,99129.25
2023-01-29T21:09:22.051Z,99125.84
2023-01-29T21:11:49.320Z,99133.34
2023-01-29T21:14:16.614Z,99128.91
2023-01-29T21:16:43.869Z,99130.66
2023-01-29T21:19:13.035Z,99118.78
2023-01-29T21:21:40.244Z,99114.34
2023-01-29T21:24:09.363Z,99106.97
2023-01-29T21:26:39.657Z,99109.94
2023-01-29T21:29:07.069Z,99106.63
2023-01-29T21:31:34.520Z,99115.63
2023-01-29T21:34:02.006Z,99108.97
2023-01-29T21:36:29.215Z,99115.00
2023-01-29T21:38:56.486Z,99115.25
2023-01-29T21:41:44.094Z,99107.69
2023-01-29T21:44:11.717Z,99114.03
2023-01-29T21:46:38.915Z,99107.28
2023-01-29T21:49:06.207Z,99104.63
2023-01-29T21:51:33.449Z,99105.22
2023-01-29T21:54:00.656Z,99109.50
2023-01-29T21:56:29.177Z,99106.28
2023-01-29T21:58:56.370Z,99105.06
2023-01-29T22:01:37.716Z,99100.41
2023-01-29T22:04:08.277Z,99099.59
2023-01-29T22:06:35.536Z,99102.47
2023-01-29T22:09:02.783Z,99110.81
2023-01-29T22:11:30.221Z,99097.28
2023-01-29T22:13:57.427Z,99099.72
2023-01-29T22:16:24.756Z,99087.88
2023-01-29T22:18:51.941Z,99093.91
2023-01-29T22:21:19.122Z,99080.72
2023-01-29T22:23:47.934Z,99077.72
2023-01-29T22:26:15.174Z,99076.91
2023-01-29T22:28:43.131Z,99068.44
2023-01-29T22:31:13.223Z,99062.72
2023-01-29T22:33:40.495Z,99053.69
2023-01-29T22:36:08.003Z,99054.84
2023-01-29T22:38:35.478Z,99058.25
2023-01-29T22:41:03.635Z,99046.59
2023-01-29T22:43:31.046Z,99045.03
2023-01-29T22:45:58.427Z,99034.94
2023-01-29T22:48:28.156Z,99031.72
2023-01-29T22:51:09.508Z,99027.06
2023-01-29T22:53:44.217Z,99024.13
2023-01-29T22:56:12.018Z,99027.72
2023-01-29T22:58:39.457Z,99028.59
2023-01-29T23:01:06.965Z,99026.34
2023-01-29T23:03:34.376Z,99024.88
2023-01-29T23:06:02.553Z,99017.00
2023-01-29T23:08:31.905Z,99019.94
2023-01-29T23:11:14.309Z,99012.66
2023-01-29T23:13:46.298Z,99015.31
2023-01-29T23:16:14.490Z,99012.47
2023-01-29T23:18:41.963Z,99010.72
2023-01-29T23:21:09.772Z,99010.13
2023-01-29T23:23:37.605Z,99004.50
2023-01-29T23:26:23.851Z,99003.06
2023-01-29T23:28:51.210Z,99004.72
2023-01-29T23:31:18.601Z,98998.78
2023-01-29T23:33:45.878Z,98995.41
2023-01-29T23:36:13.168Z,98995.28
2023-01-29T23:38:40.659Z,98991.41
2023-01-29T23:41:08.129Z,98986.53
2023-01-29T23:43:35.459Z,98976.44
2023-01-29T23:46:02.733Z,98987.50
2023-01-29T23:48:29.953Z,98976.44
2023-01-29T23:50:57.528Z,98977.03
2023-01-29T23:53:24.978Z,98974.59
2023-01-29T23:55:59.247Z,98960.22
2023-01-29T23:58:26.983Z,98950.81
